sensor_id;sensor_type;location;lat;lon;timestamp;pressure;altitude;pressure_sealevel;temperature
78369;BMP280;71113;43.092;-89.268;2023-07-13T00:01:58;97586.50;;;21.76
78369;BMP280;71113;43.092;-89.268;2023-07-13T00:04:25;97594.13;;;21.77
78369;BMP280;71113;43.092;-89.268;2023-07-13T00:06:52;97593.34;;;21.77
78369;BMP280;71113;43.092;-89.268;2023-07-13T00:09:18;97594.47;;;21.76
78369;BMP280;71113;43.092;-89.268;2023-07-13T00:11:45;97613.06;;;21.76
78369;BMP280;71113;43.092;-89.268;2023-07-13T00:14:13;97617.94;;;21.74
78369;BMP280;71113;43.092;-89.268;2023-07-13T00:16:41;97622.16;;;21.75
78369;BMP280;71113;43.092;-89.268;2023-07-13T00:19:10;97617.94;;;21.74
78369;BMP280;71113;43.092;-89.268;2023-07-13T00:21:36;97633.50;;;21.72
78369;BMP280;71113;43.092;-89.268;2023-07-13T00:24:02;97636.47;;;21.70
78369;BMP280;71113;43.092;-89.268;2023-07-13T00:26:28;97644.38;;;21.66
78369;BMP280;71113;43.092;-89.268;2023-07-13T00:28:54;97653.88;;;21.67
78369;BMP280;71113;43.092;-89.268;2023-07-13T00:31:20;97635.94;;;21.61
78369;BMP280;71113;43.092;-89.268;2023-07-13T00:33:46;97640.06;;;21.58
78369;BMP280;71113;43.092;-89.268;2023-07-13T00:36:12;97644.53;;;21.54
78369;BMP280;71113;43.092;-89.268;2023-07-13T00:38:38;97653.63;;;21.53
78369;BMP280;71113;43.092;-89.268;2023-07-13T00:41:04;97647.19;;;21.54
78369;BMP280;71113;43.092;-89.268;2023-07-13T00:43:30;97650.56;;;21.51
78369;BMP280;71113;43.092;-89.268;2023-07-13T00:48:33;97644.47;;;21.51
78369;BMP280;71113;43.092;-89.268;2023-07-13T00:51:00;97639.84;;;21.48
78369;BMP280;71113;43.092;-89.268;2023-07-13T00:53:28;97636.44;;;21.47
78369;BMP280;71113;43.092;-89.268;2023-07-13T00:55:56;97630.00;;;21.48
78369;BMP280;71113;43.092;-89.268;2023-07-13T00:58:24;97628.91;;;21.49
78369;BMP280;71113;43.092;-89.268;2023-07-13T01:00:51;97628.47;;;21.47
78369;BMP280;71113;43.092;-89.268;2023-07-13T01:03:18;97618.28;;;21.49
78369;BMP280;71113;43.092;-89.268;2023-07-13T01:05:49;97623.31;;;21.35
78369;BMP280;71113;43.092;-89.268;2023-07-13T01:08:16;97634.19;;;20.56
78369;BMP280;71113;43.092;-89.268;2023-07-13T01:10:51;97635.69;;;20.57
78369;BMP280;71113;43.092;-89.268;2023-07-13T01:13:18;97641.25;;;20.68
78369;BMP280;71113;43.092;-89.268;2023-07-13T01:15:47;97644.63;;;20.84
78369;BMP280;71113;43.092;-89.268;2023-07-13T01:18:16;97654.50;;;20.68
78369;BMP280;71113;43.092;-89.268;2023-07-13T01:21:03;97644.72;;;20.88
78369;BMP280;71113;43.092;-89.268;2023-07-13T01:23:31;97645.97;;;19.68
78369;BMP280;71113;43.092;-89.268;2023-07-13T01:25:58;97651.78;;;20.17
78369;BMP280;71113;43.092;-89.268;2023-07-13T01:28:26;97646.91;;;20.51
78369;BMP280;71113;43.092;-89.268;2023-07-13T01:30:54;97651.88;;;20.36
78369;BMP280;71113;43.092;-89.268;2023-07-13T01:33:20;97652.06;;;20.43
78369;BMP280;71113;43.092;-89.268;2023-07-13T01:35:46;97660.00;;;20.43
78369;BMP280;71113;43.092;-89.268;2023-07-13T01:38:15;97652.66;;;20.21
78369;BMP280;71113;43.092;-89.268;2023-07-13T01:40:41;97649.81;;;20.30
78369;BMP280;71113;43.092;-89.268;2023-07-13T01:43:07;97646.16;;;20.34
78369;BMP280;71113;43.092;-89.268;2023-07-13T01:45:33;97658.72;;;20.37
78369;BMP280;71113;43.092;-89.268;2023-07-13T01:47:59;97652.63;;;20.05
78369;BMP280;71113;43.092;-89.268;2023-07-13T01:50:25;97658.88;;;20.13
78369;BMP280;71113;43.092;-89.268;2023-07-13T01:52:51;97661.44;;;19.81
78369;BMP280;71113;43.092;-89.268;2023-07-13T01:55:18;97668.53;;;19.77
78369;BMP280;71113;43.092;-89.268;2023-07-13T01:57:43;97676.25;;;19.83
78369;BMP280;71113;43.092;-89.268;2023-07-13T02:00:10;97680.94;;;19.89
78369;BMP280;71113;43.092;-89.268;2023-07-13T02:02:36;97679.53;;;20.07
78369;BMP280;71113;43.092;-89.268;2023-07-13T02:05:02;97669.47;;;20.13
78369;BMP280;71113;43.092;-89.268;2023-07-13T02:07:28;97670.91;;;20.10
78369;BMP280;71113;43.092;-89.268;2023-07-13T02:09:54;97670.13;;;20.10
78369;BMP280;71113;43.092;-89.268;2023-07-13T02:12:20;97675.72;;;20.05
78369;BMP280;71113;43.092;-89.268;2023-07-13T02:14:46;97669.97;;;20.03
78369;BMP280;71113;43.092;-89.268;2023-07-13T02:17:12;97675.72;;;20.05
78369;BMP280;71113;43.092;-89.268;2023-07-13T02:19:38;97685.84;;;20.03
78369;BMP280;71113;43.092;-89.268;2023-07-13T02:22:04;97690.09;;;19.92
78369;BMP280;71113;43.092;-89.268;2023-07-13T02:24:30;97686.88;;;19.98
78369;BMP280;71113;43.092;-89.268;2023-07-13T02:26:56;97684.97;;;19.99
78369;BMP280;71113;43.092;-89.268;2023-07-13T02:29:22;97683.88;;;20.16
78369;BMP280;71113;43.092;-89.268;2023-07-13T02:31:48;97695.97;;;20.13
78369;BMP280;71113;43.092;-89.268;2023-07-13T02:34:14;97696.72;;;20.14
78369;BMP280;71113;43.092;-89.268;2023-07-13T02:36:40;97698.91;;;20.11
78369;BMP280;71113;43.092;-89.268;2023-07-13T02:39:07;97692.09;;;20.10
78369;BMP280;71113;43.092;-89.268;2023-07-13T02:41:33;97693.22;;;20.09
78369;BMP280;71113;43.092;-89.268;2023-07-13T02:43:59;97697.75;;;20.09
78369;BMP280;71113;43.092;-89.268;2023-07-13T02:46:36;97688.66;;;20.10
78369;BMP280;71113;43.092;-89.268;2023-07-13T02:49:10;97686.03;;;20.10
78369;BMP280;71113;43.092;-89.268;2023-07-13T02:51:36;97695.41;;;20.07
78369;BMP280;71113;43.092;-89.268;2023-07-13T02:54:03;97695.09;;;20.09
78369;BMP280;71113;43.092;-89.268;2023-07-13T02:56:31;97684.22;;;20.14
78369;BMP280;71113;43.092;-89.268;2023-07-13T02:58:57;97686.53;;;20.16
78369;BMP280;71113;43.092;-89.268;2023-07-13T03:01:24;97684.13;;;20.10
78369;BMP280;71113;43.092;-89.268;2023-07-13T03:03:52;97688.25;;;20.08
78369;BMP280;71113;43.092;-89.268;2023-07-13T03:06:18;97684.59;;;20.13
78369;BMP280;71113;43.092;-89.268;2023-07-13T03:08:44;97689.81;;;20.09
78369;BMP280;71113;43.092;-89.268;2023-07-13T03:11:14;97697.19;;;20.03
78369;BMP280;71113;43.092;-89.268;2023-07-13T03:13:41;97693.44;;;20.04
78369;BMP280;71113;43.092;-89.268;2023-07-13T03:16:08;97687.38;;;20.04
78369;BMP280;71113;43.092;-89.268;2023-07-13T03:18:36;97694.91;;;20.02
78369;BMP280;71113;43.092;-89.268;2023-07-13T03:21:02;97693.78;;;20.03
78369;BMP280;71113;43.092;-89.268;2023-07-13T03:23:28;97690.97;;;19.96
78369;BMP280;71113;43.092;-89.268;2023-07-13T03:28:30;97695.59;;;20.15
78369;BMP280;71113;43.092;-89.268;2023-07-13T03:31:05;97694.72;;;20.10
78369;BMP280;71113;43.092;-89.268;2023-07-13T03:33:31;97694.09;;;20.14
78369;BMP280;71113;43.092;-89.268;2023-07-13T03:35:57;97701.06;;;20.06
78369;BMP280;71113;43.092;-89.268;2023-07-13T03:38:23;97710.13;;;20.05
78369;BMP280;71113;43.092;-89.268;2023-07-13T03:40:49;97717.06;;;20.09
78369;BMP280;71113;43.092;-89.268;2023-07-13T03:43:15;97712.06;;;20.08
78369;BMP280;71113;43.092;-89.268;2023-07-13T03:45:41;97712.84;;;20.08
78369;BMP280;71113;43.092;-89.268;2023-07-13T03:48:07;97717.63;;;20.03
78369;BMP280;71113;43.092;-89.268;2023-07-13T03:50:32;97705.56;;;20.05
78369;BMP280;71113;43.092;-89.268;2023-07-13T03:53:00;97715.44;;;20.05
78369;BMP280;71113;43.092;-89.268;2023-07-13T03:55:26;97715.44;;;20.05
78369;BMP280;71113;43.092;-89.268;2023-07-13T03:57:58;97710.63;;;20.10
78369;BMP280;71113;43.092;-89.268;2023-07-13T04:00:24;97713.84;;;20.04
78369;BMP280;71113;43.092;-89.268;2023-07-13T04:02:51;97712.78;;;20.05
78369;BMP280;71113;43.092;-89.268;2023-07-13T04:05:17;97717.63;;;20.03
78369;BMP280;71113;43.092;-89.268;2023-07-13T04:07:43;97712.41;;;20.06
78369;BMP280;71113;43.092;-89.268;2023-07-13T04:10:09;97706.25;;;20.02
78369;BMP280;71113;43.092;-89.268;2023-07-13T04:12:35;97700.53;;;20.00
78369;BMP280;71113;43.092;-89.268;2023-07-13T04:15:01;97703.59;;;20.02
78369;BMP280;71113;43.092;-89.268;2023-07-13T04:17:27;97700.88;;;19.99
78369;BMP280;71113;43.092;-89.268;2023-07-13T04:19:53;97706.16;;;19.99
78369;BMP280;71113;43.092;-89.268;2023-07-13T04:22:19;97699.09;;;20.03
78369;BMP280;71113;43.092;-89.268;2023-07-13T04:24:45;97697.13;;;20.00
78369;BMP280;71113;43.092;-89.268;2023-07-13T04:27:11;97696.88;;;20.05
78369;BMP280;71113;43.092;-89.268;2023-07-13T04:29:37;97698.75;;;20.04
78369;BMP280;71113;43.092;-89.268;2023-07-13T04:32:03;97684.91;;;19.95
78369;BMP280;71113;43.092;-89.268;2023-07-13T04:34:29;97689.66;;;19.90
78369;BMP280;71113;43.092;-89.268;2023-07-13T04:36:55;97691.44;;;19.86
78369;BMP280;71113;43.092;-89.268;2023-07-13T04:39:21;97695.28;;;19.88
78369;BMP280;71113;43.092;-89.268;2023-07-13T04:41:46;97692.78;;;19.79
78369;BMP280;71113;43.092;-89.268;2023-07-13T04:44:12;97697.19;;;19.88
78369;BMP280;71113;43.092;-89.268;2023-07-13T04:46:38;97701.25;;;19.85
78369;BMP280;71113;43.092;-89.268;2023-07-13T04:49:04;97704.22;;;19.84
78369;BMP280;71113;43.092;-89.268;2023-07-13T04:51:30;97702.63;;;19.79
78369;BMP280;71113;43.092;-89.268;2023-07-13T04:53:56;97701.94;;;19.82
78369;BMP280;71113;43.092;-89.268;2023-07-13T04:56:22;97710.41;;;19.88
78369;BMP280;71113;43.092;-89.268;2023-07-13T04:58:47;97705.22;;;19.91
78369;BMP280;71113;43.092;-89.268;2023-07-13T05:01:13;97703.88;;;19.85
78369;BMP280;71113;43.092;-89.268;2023-07-13T05:03:39;97706.22;;;19.87
78369;BMP280;71113;43.092;-89.268;2023-07-13T05:06:07;97706.44;;;19.81
78369;BMP280;71113;43.092;-89.268;2023-07-13T05:08:36;97721.28;;;19.70
78369;BMP280;71113;43.092;-89.268;2023-07-13T05:11:04;97707.91;;;19.79
78369;BMP280;71113;43.092;-89.268;2023-07-13T05:13:31;97709.56;;;19.71
78369;BMP280;71113;43.092;-89.268;2023-07-13T05:16:04;97709.56;;;19.71
78369;BMP280;71113;43.092;-89.268;2023-07-13T05:18:33;97708.47;;;19.72
78369;BMP280;71113;43.092;-89.268;2023-07-13T05:21:04;97704.19;;;19.68
78369;BMP280;71113;43.092;-89.268;2023-07-13T05:23:32;97702.31;;;19.68
78369;BMP280;71113;43.092;-89.268;2023-07-13T05:25:59;97701.97;;;19.70
78369;BMP280;71113;43.092;-89.268;2023-07-13T05:28:25;97699.75;;;19.72
78369;BMP280;71113;43.092;-89.268;2023-07-13T05:30:52;97697.78;;;19.69
78369;BMP280;71113;43.092;-89.268;2023-07-13T05:33:19;97692.06;;;19.67
78369;BMP280;71113;43.092;-89.268;2023-07-13T05:35:46;97689.41;;;19.67
78369;BMP280;71113;43.092;-89.268;2023-07-13T05:38:13;97685.72;;;19.56
78369;BMP280;71113;43.092;-89.268;2023-07-13T05:40:38;97686.59;;;19.60
78369;BMP280;71113;43.092;-89.268;2023-07-13T05:43:04;97686.25;;;19.61
78369;BMP280;71113;43.092;-89.268;2023-07-13T05:45:30;97689.75;;;19.65
78369;BMP280;71113;43.092;-89.268;2023-07-13T05:47:56;97687.53;;;19.67
78369;BMP280;71113;43.092;-89.268;2023-07-13T05:50:22;97685.81;;;19.59
78369;BMP280;71113;43.092;-89.268;2023-07-13T05:52:48;97678.78;;;19.51
78369;BMP280;71113;43.092;-89.268;2023-07-13T05:55:14;97686.03;;;19.54
78369;BMP280;71113;43.092;-89.268;2023-07-13T05:57:40;97685.72;;;19.56
78369;BMP280;71113;43.092;-89.268;2023-07-13T06:00:07;97676.31;;;19.58
78369;BMP280;71113;43.092;-89.268;2023-07-13T06:02:33;97673.91;;;19.53
78369;BMP280;71113;43.092;-89.268;2023-07-13T06:04:58;97673.16;;;19.53
78369;BMP280;71113;43.092;-89.268;2023-07-13T06:07:24;97668.13;;;19.47
78369;BMP280;71113;43.092;-89.268;2023-07-13T06:09:50;97671.53;;;19.48
78369;BMP280;71113;43.092;-89.268;2023-07-13T06:12:16;97666.88;;;19.45
78369;BMP280;71113;43.092;-89.268;2023-07-13T06:14:42;97668.53;;;19.49
78369;BMP280;71113;43.092;-89.268;2023-07-13T06:17:08;97665.00;;;19.45
78369;BMP280;71113;43.092;-89.268;2023-07-13T06:19:34;97663.47;;;19.44
78369;BMP280;71113;43.092;-89.268;2023-07-13T06:22:00;97674.47;;;19.46
78369;BMP280;71113;43.092;-89.268;2023-07-13T06:24:26;97675.50;;;19.42
78369;BMP280;71113;43.092;-89.268;2023-07-13T06:26:52;97677.84;;;19.43
78369;BMP280;71113;43.092;-89.268;2023-07-13T06:29:18;97673.53;;;19.39
78369;BMP280;71113;43.092;-89.268;2023-07-13T06:31:44;97672.75;;;19.38
78369;BMP280;71113;43.092;-89.268;2023-07-13T06:34:10;97668.81;;;19.32
78369;BMP280;71113;43.092;-89.268;2023-07-13T06:36:36;97666.69;;;19.38
78369;BMP280;71113;43.092;-89.268;2023-07-13T06:39:04;97663.94;;;19.34
78369;BMP280;71113;43.092;-89.268;2023-07-13T06:41:30;97658.03;;;19.25
78369;BMP280;71113;43.092;-89.268;2023-07-13T06:43:56;97665.38;;;19.32
78369;BMP280;71113;43.092;-89.268;2023-07-13T06:46:23;97664.84;;;19.26
78369;BMP280;71113;43.092;-89.268;2023-07-13T06:48:49;97668.72;;;19.29
78369;BMP280;71113;43.092;-89.268;2023-07-13T06:51:15;97661.19;;;19.31
78369;BMP280;71113;43.092;-89.268;2023-07-13T06:53:41;97654.72;;;19.28
78369;BMP280;71113;43.092;-89.268;2023-07-13T06:56:09;97652.84;;;19.29
78369;BMP280;71113;43.092;-89.268;2023-07-13T06:58:36;97644.03;;;19.25
78369;BMP280;71113;43.092;-89.268;2023-07-13T07:01:03;97649.31;;;19.25
78369;BMP280;71113;43.092;-89.268;2023-07-13T07:03:29;97649.31;;;19.25
78369;BMP280;71113;43.092;-89.268;2023-07-13T07:06:12;97648.88;;;19.23
78369;BMP280;71113;43.092;-89.268;2023-07-13T07:08:39;97644.34;;;19.23
78369;BMP280;71113;43.092;-89.268;2023-07-13T07:11:08;97643.81;;;19.17
78369;BMP280;71113;43.092;-89.268;2023-07-13T07:13:34;97649.88;;;19.18
78369;BMP280;71113;43.092;-89.268;2023-07-13T07:15:59;97640.53;;;19.21
78369;BMP280;71113;43.092;-89.268;2023-07-13T07:18:26;97641.16;;;19.17
78369;BMP280;71113;43.092;-89.268;2023-07-13T07:20:52;97636.88;;;19.13
78369;BMP280;71113;43.092;-89.268;2023-07-13T07:23:18;97633.16;;;19.14
78369;BMP280;71113;43.092;-89.268;2023-07-13T07:25:44;97627.09;;;19.13
78369;BMP280;71113;43.092;-89.268;2023-07-13T07:28:12;97628.53;;;19.11
78369;BMP280;71113;43.092;-89.268;2023-07-13T07:30:42;97627.09;;;19.13
78369;BMP280;71113;43.092;-89.268;2023-07-13T07:33:08;97632.19;;;19.06
78369;BMP280;71113;43.092;-89.268;2023-07-13T07:35:34;97633.72;;;19.07
78369;BMP280;71113;43.092;-89.268;2023-07-13T07:38:00;97637.09;;;19.08
78369;BMP280;71113;43.092;-89.268;2023-07-13T07:40:26;97634.16;;;19.09
78369;BMP280;71113;43.092;-89.268;2023-07-13T07:42:52;97643.09;;;19.05
78369;BMP280;71113;43.092;-89.268;2023-07-13T07:45:19;97652.56;;;18.94
78369;BMP280;71113;43.092;-89.268;2023-07-13T07:47:45;97646.81;;;18.92
78369;BMP280;71113;43.092;-89.268;2023-07-13T07:50:11;97654.22;;;18.98
78369;BMP280;71113;43.092;-89.268;2023-07-13T07:52:37;97640.53;;;18.96
78369;BMP280;71113;43.092;-89.268;2023-07-13T07:55:05;97641.88;;;19.02
78369;BMP280;71113;43.092;-89.268;2023-07-13T07:57:31;97637.69;;;19.01
78369;BMP280;71113;43.092;-89.268;2023-07-13T07:59:57;97640.63;;;19.00
78369;BMP280;71113;43.092;-89.268;2023-07-13T08:02:25;97632.59;;;18.96
78369;BMP280;71113;43.092;-89.268;2023-07-13T08:04:51;97626.88;;;18.94
78369;BMP280;71113;43.092;-89.268;2023-07-13T08:07:18;97635.59;;;18.95
78369;BMP280;71113;43.092;-89.268;2023-07-13T08:09:44;97642.31;;;18.92
78369;BMP280;71113;43.092;-89.268;2023-07-13T08:12:10;97640.44;;;18.93
78369;BMP280;71113;43.092;-89.268;2023-07-13T08:14:36;97637.91;;;18.96
78369;BMP280;71113;43.092;-89.268;2023-07-13T08:17:02;97647.16;;;18.90
78369;BMP280;71113;43.092;-89.268;2023-07-13T08:19:28;97650.56;;;18.91
78369;BMP280;71113;43.092;-89.268;2023-07-13T08:21:53;97657.88;;;18.94
78369;BMP280;71113;43.092;-89.268;2023-07-13T08:24:23;97665.22;;;18.88
78369;BMP280;71113;43.092;-89.268;2023-07-13T08:26:50;97669.50;;;18.93
78369;BMP280;71113;43.092;-89.268;2023-07-13T08:29:16;97666.88;;;18.93
78369;BMP280;71113;43.092;-89.268;2023-07-13T08:31:42;97673.59;;;18.90
78369;BMP280;71113;43.092;-89.268;2023-07-13T08:34:08;97670.94;;;18.90
78369;BMP280;71113;43.092;-89.268;2023-07-13T08:36:34;97662.69;;;18.92
78369;BMP280;71113;43.092;-89.268;2023-07-13T08:39:00;97663.47;;;18.92
78369;BMP280;71113;43.092;-89.268;2023-07-13T08:41:26;97663.47;;;18.92
78369;BMP280;71113;43.092;-89.268;2023-07-13T08:43:56;97670.63;;;18.92
78369;BMP280;71113;43.092;-89.268;2023-07-13T08:48:56;97675.91;;;18.92
78369;BMP280;71113;43.092;-89.268;2023-07-13T08:54:10;97672.28;;;18.84
78369;BMP280;71113;43.092;-89.268;2023-07-13T08:56:38;97676.22;;;18.90
78369;BMP280;71113;43.092;-89.268;2023-07-13T08:59:18;97679.00;;;18.94
78369;BMP280;71113;43.092;-89.268;2023-07-13T09:01:53;97672.16;;;18.93
78369;BMP280;71113;43.092;-89.268;2023-07-13T09:04:28;97675.47;;;18.90
78369;BMP280;71113;43.092;-89.268;2023-07-13T09:07:00;97688.25;;;18.87
78369;BMP280;71113;43.092;-89.268;2023-07-13T09:10:03;97689.44;;;18.90
78369;BMP280;71113;43.092;-89.268;2023-07-13T09:15:31;97696.28;;;18.91
78369;BMP280;71113;43.092;-89.268;2023-07-13T09:18:11;97697.38;;;18.90
78369;BMP280;71113;43.092;-89.268;2023-07-13T09:20:49;97703.09;;;18.92
78369;BMP280;71113;43.092;-89.268;2023-07-13T09:23:16;97690.66;;;18.93
78369;BMP280;71113;43.092;-89.268;2023-07-13T09:25:46;97703.88;;;18.93
78369;BMP280;71113;43.092;-89.268;2023-07-13T09:28:19;97711.47;;;18.94
78369;BMP280;71113;43.092;-89.268;2023-07-13T09:33:38;97724.25;;;18.92
78369;BMP280;71113;43.092;-89.268;2023-07-13T09:36:31;97731.09;;;18.93
78369;BMP280;71113;43.092;-89.268;2023-07-13T09:39:14;97730.97;;;18.90
78369;BMP280;71113;43.092;-89.268;2023-07-13T09:42:05;97726.88;;;18.92
78369;BMP280;71113;43.092;-89.268;2023-07-13T09:50:03;97751.00;;;18.91
78369;BMP280;71113;43.092;-89.268;2023-07-13T09:52:47;97752.09;;;18.90
78369;BMP280;71113;43.092;-89.268;2023-07-13T09:55:44;97760.47;;;18.92
78369;BMP280;71113;43.092;-89.268;2023-07-13T09:58:21;97763.22;;;18.95
78369;BMP280;71113;43.092;-89.268;2023-07-13T10:00:56;97763.22;;;18.95
78369;BMP280;71113;43.092;-89.268;2023-07-13T10:03:29;97766.22;;;18.94
78369;BMP280;71113;43.092;-89.268;2023-07-13T10:06:25;97767.19;;;18.89
78369;BMP280;71113;43.092;-89.268;2023-07-13T10:08:56;97768.72;;;18.90
78369;BMP280;71113;43.092;-89.268;2023-07-13T10:11:27;97769.06;;;18.88
78369;BMP280;71113;43.092;-89.268;2023-07-13T10:14:16;97774.69;;;18.87
78369;BMP280;71113;43.092;-89.268;2023-07-13T10:16:44;97781.94;;;18.90
78369;BMP280;71113;43.092;-89.268;2023-07-13T10:19:24;97785.69;;;18.89
78369;BMP280;71113;43.092;-89.268;2023-07-13T10:21:57;97785.69;;;18.89
78369;BMP280;71113;43.092;-89.268;2023-07-13T10:24:35;97793.94;;;18.87
78369;BMP280;71113;43.092;-89.268;2023-07-13T10:27:19;97788.44;;;18.93
78369;BMP280;71113;43.092;-89.268;2023-07-13T10:32:14;97795.16;;;18.90
78369;BMP280;71113;43.092;-89.268;2023-07-13T10:34:43;97798.91;;;18.89
78369;BMP280;71113;43.092;-89.268;2023-07-13T10:37:21;97801.53;;;18.89
78369;BMP280;71113;43.092;-89.268;2023-07-13T10:39:50;97799.56;;;18.86
78369;BMP280;71113;43.092;-89.268;2023-07-13T10:42:27;97804.19;;;18.89
78369;BMP280;71113;43.092;-89.268;2023-07-13T10:44:53;97800.78;;;18.88
78369;BMP280;71113;43.092;-89.268;2023-07-13T10:47:20;97807.94;;;18.88
78369;BMP280;71113;43.092;-89.268;2023-07-13T10:49:47;97814.31;;;18.87
78369;BMP280;71113;43.092;-89.268;2023-07-13T10:52:41;97806.81;;;18.89
78369;BMP280;71113;43.092;-89.268;2023-07-13T10:55:54;97818.94;;;18.90
78369;BMP280;71113;43.092;-89.268;2023-07-13T10:58:35;97816.44;;;18.94
78369;BMP280;71113;43.092;-89.268;2023-07-13T11:03:28;97823.25;;;18.95
78369;BMP280;71113;43.092;-89.268;2023-07-13T11:06:16;97822.13;;;18.83
78369;BMP280;71113;43.092;-89.268;2023-07-13T11:19:24;97813.41;;;18.71
78369;BMP280;71113;43.092;-89.268;2023-07-13T11:24:49;97814.31;;;18.75
78369;BMP280;71113;43.092;-89.268;2023-07-13T11:27:39;97807.50;;;18.86
78369;BMP280;71113;43.092;-89.268;2023-07-13T11:30:25;97806.59;;;18.94
78369;BMP280;71113;43.092;-89.268;2023-07-13T11:38:21;97814.22;;;18.96
78369;BMP280;71113;43.092;-89.268;2023-07-13T11:40:50;97823.38;;;18.98
78369;BMP280;71113;43.092;-89.268;2023-07-13T11:43:17;97817.09;;;19.03
78369;BMP280;71113;43.092;-89.268;2023-07-13T11:45:44;97821.63;;;19.02
78369;BMP280;71113;43.092;-89.268;2023-07-13T11:48:28;97820.75;;;18.98
78369;BMP280;71113;43.092;-89.268;2023-07-13T11:51:03;97819.31;;;19.01
78369;BMP280;71113;43.092;-89.268;2023-07-13T11:53:39;97821.25;;;19.04
78369;BMP280;71113;43.092;-89.268;2023-07-13T11:56:06;97832.59;;;19.04
78369;BMP280;71113;43.092;-89.268;2023-07-13T11:58:32;97830.44;;;19.06
78369;BMP280;71113;43.092;-89.268;2023-07-13T12:01:02;97826.25;;;19.05
78369;BMP280;71113;43.092;-89.268;2023-07-13T12:03:30;97820.63;;;19.07
78369;BMP280;71113;43.092;-89.268;2023-07-13T12:05:58;97828.88;;;19.05
78369;BMP280;71113;43.092;-89.268;2023-07-13T12:08:25;97824.03;;;19.07
78369;BMP280;71113;43.092;-89.268;2023-07-13T12:11:01;97835.72;;;19.06
78369;BMP280;71113;43.092;-89.268;2023-07-13T12:13:36;97827.03;;;19.06
78369;BMP280;71113;43.092;-89.268;2023-07-13T12:16:16;97829.66;;;19.06
78369;BMP280;71113;43.092;-89.268;2023-07-13T12:18:43;97822.84;;;19.05
78369;BMP280;71113;43.092;-89.268;2023-07-13T12:21:17;97831.06;;;19.03
78369;BMP280;71113;43.092;-89.268;2023-07-13T12:23:45;97836.81;;;19.05
78369;BMP280;71113;43.092;-89.268;2023-07-13T12:26:14;97831.19;;;19.07
78369;BMP280;71113;43.092;-89.268;2023-07-13T12:28:47;97831.19;;;19.07
78369;BMP280;71113;43.092;-89.268;2023-07-13T12:36:47;97820.28;;;19.08
78369;BMP280;71113;43.092;-89.268;2023-07-13T12:39:46;97814.22;;;19.08
78369;BMP280;71113;43.092;-89.268;2023-07-13T12:42:21;97804.88;;;19.10
78369;BMP280;71113;43.092;-89.268;2023-07-13T12:45:00;97799.59;;;19.10
78369;BMP280;71113;43.092;-89.268;2023-07-13T12:47:27;97806.41;;;19.11
78369;BMP280;71113;43.092;-89.268;2023-07-13T12:49:57;97814.03;;;19.13
78369;BMP280;71113;43.092;-89.268;2023-07-13T12:52:29;97803.44;;;19.13
78369;BMP280;71113;43.092;-89.268;2023-07-13T12:55:07;97805.31;;;19.12
78369;BMP280;71113;43.092;-89.268;2023-07-13T12:57:56;97805.00;;;19.14
78369;BMP280;71113;43.092;-89.268;2023-07-13T13:00:29;97809.63;;;19.17
78369;BMP280;71113;43.092;-89.268;2023-07-13T13:03:02;97803.59;;;19.16
78369;BMP280;71113;43.092;-89.268;2023-07-13T13:05:29;97802.13;;;19.19
78369;BMP280;71113;43.092;-89.268;2023-07-13T13:07:55;97811.25;;;19.22
78369;BMP280;71113;43.092;-89.268;2023-07-13T13:10:21;97808.28;;;19.23
78369;BMP280;71113;43.092;-89.268;2023-07-13T13:12:47;97804.56;;;19.24
78369;BMP280;71113;43.092;-89.268;2023-07-13T13:15:13;97808.28;;;19.23
78369;BMP280;71113;43.092;-89.268;2023-07-13T13:17:39;97801.13;;;19.24
78369;BMP280;71113;43.092;-89.268;2023-07-13T13:20:16;97806.41;;;19.24
78369;BMP280;71113;43.092;-89.268;2023-07-13T13:22:42;97807.22;;;19.24
78369;BMP280;71113;43.092;-89.268;2023-07-13T13:25:12;97793.19;;;19.24
78369;BMP280;71113;43.092;-89.268;2023-07-13T13:27:46;97783.50;;;19.28
78369;BMP280;71113;43.092;-89.268;2023-07-13T13:30:19;97783.97;;;19.30
78369;BMP280;71113;43.092;-89.268;2023-07-13T13:32:47;97780.19;;;19.31
78369;BMP280;71113;43.092;-89.268;2023-07-13T13:35:18;97781.75;;;19.32
78369;BMP280;71113;43.092;-89.268;2023-07-13T13:37:45;97787.03;;;19.32
78369;BMP280;71113;43.092;-89.268;2023-07-13T13:40:22;97778.66;;;19.30
78369;BMP280;71113;43.092;-89.268;2023-07-13T13:42:53;97771.84;;;19.29
78369;BMP280;71113;43.092;-89.268;2023-07-13T13:45:20;97763.91;;;19.29
78369;BMP280;71113;43.092;-89.268;2023-07-13T13:47:46;97752.56;;;19.28
78369;BMP280;71113;43.092;-89.268;2023-07-13T13:50:17;97740.97;;;19.33
78369;BMP280;71113;43.092;-89.268;2023-07-13T13:52:43;97745.16;;;19.34
78369;BMP280;71113;43.092;-89.268;2023-07-13T13:55:13;97745.94;;;19.34
78369;BMP280;71113;43.092;-89.268;2023-07-13T13:57:39;97737.00;;;19.39
78369;BMP280;71113;43.092;-89.268;2023-07-13T14:00:07;97736.31;;;19.42
78369;BMP280;71113;43.092;-89.268;2023-07-13T14:02:34;97740.84;;;19.41
78369;BMP280;71113;43.092;-89.268;2023-07-13T14:05:03;97735.66;;;19.45
78369;BMP280;71113;43.092;-89.268;2023-07-13T14:07:30;97732.78;;;19.50
78369;BMP280;71113;43.092;-89.268;2023-07-13T14:09:57;97734.34;;;19.51
78369;BMP280;71113;43.092;-89.268;2023-07-13T14:12:24;97732.22;;;19.57
78369;BMP280;71113;43.092;-89.268;2023-07-13T14:14:54;97737.97;;;19.59
78369;BMP280;71113;43.092;-89.268;2023-07-13T14:17:25;97731.66;;;19.63
78369;BMP280;71113;43.092;-89.268;2023-07-13T14:19:53;97729.88;;;19.67
78369;BMP280;71113;43.092;-89.268;2023-07-13T14:22:26;97734.50;;;19.70
78369;BMP280;71113;43.092;-89.268;2023-07-13T14:24:55;97726.66;;;19.74
78369;BMP280;71113;43.092;-89.268;2023-07-13T14:27:24;97719.91;;;19.76
78369;BMP280;71113;43.092;-89.268;2023-07-13T14:29:50;97726.75;;;19.77
78369;BMP280;71113;43.092;-89.268;2023-07-13T14:32:16;97728.72;;;19.80
78369;BMP280;71113;43.092;-89.268;2023-07-13T14:34:42;97725.88;;;19.86
78369;BMP280;71113;43.092;-89.268;2023-07-13T14:37:13;97728.56;;;19.89
78369;BMP280;71113;43.092;-89.268;2023-07-13T14:39:40;97718.06;;;19.93
78369;BMP280;71113;43.092;-89.268;2023-07-13T14:42:08;97720.16;;;19.99
78369;BMP280;71113;43.092;-89.268;2023-07-13T14:44:34;97726.41;;;20.07
78369;BMP280;71113;43.092;-89.268;2023-07-13T14:47:03;97719.78;;;20.13